Time;durP1;ratioP1;P1;durP2;ratioP2;P2;SDS_P1;SDS_P2;PMS_P1;PMS_P2;Temp;Humidity;BMP_temperature;BMP_pressure;BME280_temperature;BME280_humidity;BME280_pressure;Samples;Min_cycle;Max_cycle;Signal;HPM_P1;HPM_P2
2023/10/09 00:00:35;;;;;;;12.50;2.60;;;;;;;6.06;54.73;101132.63;5012851;28;20206;-56
2023/10/09 00:03:06;;;;;;;5.10;2.90;;;;;;;6.04;55.11;101124.06;5014204;28;20206;-57
2023/10/09 00:05:45;;;;;;;4.20;2.60;;;;;;;6.01;54.95;101113.75;5017056;28;20562;-53
2023/10/09 00:08:19;;;;;;;5.07;2.73;;;;;;;6.00;55.22;101119.69;5014164;28;20581;-56
2023/10/09 00:10:52;;;;;;;6.57;3.17;;;;;;;5.94;55.21;101120.41;5017105;28;20216;-56
2023/10/09 00:13:27;;;;;;;5.97;2.60;;;;;;;5.92;55.46;101110.94;5018143;28;20650;-55
2023/10/09 00:15:59;;;;;;;4.13;2.50;;;;;;;5.93;55.44;101111.03;5013163;28;20576;-55
2023/10/09 00:18:34;;;;;;;5.63;2.47;;;;;;;5.94;55.62;101106.75;5013357;28;20207;-58
2023/10/09 00:21:12;;;;;;;5.37;2.60;;;;;;;5.98;55.64;101119.66;5012168;28;20610;-57
2023/10/09 00:23:41;;;;;;;4.33;2.57;;;;;;;5.97;55.54;101112.81;5010977;28;20751;-57
2023/10/09 00:26:11;;;;;;;4.97;2.70;;;;;;;5.97;55.50;101119.63;5009495;28;20210;-56
2023/10/09 00:28:44;;;;;;;9.10;3.00;;;;;;;6.00;55.85;101106.88;5017328;28;20211;-58
2023/10/09 00:31:15;;;;;;;4.53;2.60;;;;;;;6.01;56.14;101100.97;5012408;28;20217;-54
2023/10/09 00:33:44;;;;;;;3.80;2.57;;;;;;;5.98;55.39;101088.97;5013319;28;20278;-57
2023/10/09 00:36:18;;;;;;;4.47;2.67;;;;;;;5.89;55.37;101100.63;5014667;28;20682;-57
2023/10/09 00:38:50;;;;;;;5.60;2.57;;;;;;;5.81;55.71;101101.28;5016944;28;20211;-57
2023/10/09 00:41:21;;;;;;;5.60;2.57;;;;;;;5.78;56.10;101096.13;5012436;28;20207;-57
2023/10/09 00:43:50;;;;;;;3.70;2.40;;;;;;;5.78;55.82;101075.66;5011563;28;20742;-57
2023/10/09 00:46:26;;;;;;;2.90;2.20;;;;;;;5.81;55.85;101074.84;5018285;28;20577;-58
2023/10/09 00:49:02;;;;;;;3.83;2.60;;;;;;;5.87;56.48;101081.81;5013710;28;20330;-56
2023/10/09 00:51:35;;;;;;;4.63;2.70;;;;;;;5.90;56.17;101077.66;5012266;28;20702;-56
2023/10/09 00:54:13;;;;;;;5.13;2.77;;;;;;;5.93;56.43;101066.63;5014187;28;20231;-57
2023/10/09 00:56:45;;;;;;;4.70;3.03;;;;;;;5.94;56.11;101076.06;5009309;28;20305;-58
2023/10/09 00:59:20;;;;;;;4.77;2.70;;;;;;;5.95;56.20;101072.66;5014290;28;20199;-60
2023/10/09 01:01:56;;;;;;;5.03;2.77;;;;;;;5.97;55.77;101060.78;5010975;28;20213;-59
2023/10/09 01:04:28;;;;;;;4.43;2.57;;;;;;;5.98;56.27;101065.94;5010341;28;20689;-58
2023/10/09 01:07:08;;;;;;;6.00;3.40;;;;;;;5.91;56.14;101068.28;5021651;28;20741;-60
2023/10/09 01:09:37;;;;;;;5.33;2.80;;;;;;;5.81;55.98;101075.72;5014818;28;20218;-59
2023/10/09 01:12:06;;;;;;;5.47;3.07;;;;;;;5.69;56.25;101072.88;5008712;28;20229;-58
2023/10/09 01:14:36;;;;;;;6.53;2.90;;;;;;;5.64;56.98;101046.34;5014192;28;20203;-62
2023/10/09 01:17:10;;;;;;;4.50;2.80;;;;;;;5.66;56.84;101048.91;5014218;28;20211;-58
2023/10/09 01:19:42;;;;;;;7.17;2.80;;;;;;;5.63;57.20;101047.13;5009509;28;20311;-57
2023/10/09 01:22:14;;;;;;;5.47;3.07;;;;;;;5.69;57.57;101054.09;5011408;28;20308;-58
2023/10/09 01:24:44;;;;;;;5.47;2.53;;;;;;;5.72;57.07;101043.97;5014043;28;20206;-60
2023/10/09 01:27:14;;;;;;;4.57;2.43;;;;;;;5.74;56.99;101038.06;5013768;28;20604;-59
2023/10/09 01:29:45;;;;;;;4.20;2.43;;;;;;;5.75;56.98;101034.66;5008752;28;20239;-59
2023/10/09 01:32:19;;;;;;;5.03;2.73;;;;;;;5.74;57.32;101029.50;5018593;28;20553;-58
2023/10/09 01:34:49;;;;;;;5.17;2.50;;;;;;;5.72;56.89;101024.38;5013188;28;20211;-59
2023/10/09 01:37:22;;;;;;;6.80;2.60;;;;;;;5.57;57.29;101021.44;5010404;28;20257;-64
2023/10/09 01:39:58;;;;;;;5.27;3.00;;;;;;;5.47;57.68;101033.13;5009661;28;20271;-59
2023/10/09 01:42:33;;;;;;;4.87;2.77;;;;;;;5.39;58.10;101038.88;5012404;28;20202;-60
2023/10/09 01:45:10;;;;;;;4.97;2.40;;;;;;;5.34;58.09;101038.78;5008496;28;20249;-58
2023/10/09 01:47:38;;;;;;;7.00;2.77;;;;;;;5.32;58.43;101033.59;5012112;28;20211;-58
2023/10/09 01:50:11;;;;;;;5.03;2.70;;;;;;;5.30;58.79;101026.72;5009952;28;20314;-57
2023/10/09 01:52:40;;;;;;;3.90;2.47;;;;;;;5.35;58.78;101032.81;5009822;28;20239;-58
2023/10/09 01:55:13;;;;;;;4.97;2.67;;;;;;;5.40;58.45;101040.59;5012158;28;20211;-58
2023/10/09 01:57:44;;;;;;;4.43;2.40;;;;;;;5.45;58.47;101033.91;5005277;28;20237;-59
2023/10/09 02:00:24;;;;;;;4.23;2.90;;;;;;;5.46;57.98;101025.44;5010796;28;20245;-60
2023/10/09 02:02:52;;;;;;;4.77;2.47;;;;;;;5.40;57.98;101021.00;5013693;28;20227;-59
2023/10/09 02:05:26;;;;;;;4.93;2.70;;;;;;;5.38;58.31;101024.38;5011967;28;20725;-58
2023/10/09 02:07:54;;;;;;;4.00;2.70;;;;;;;5.35;58.21;101021.75;5010855;28;20217;-59
2023/10/09 02:10:32;;;;;;;4.33;2.63;;;;;;;5.32;58.42;101025.94;5012184;28;20260;-58
2023/10/09 02:13:07;;;;;;;4.50;2.83;;;;;;;5.26;58.54;101023.22;5011126;28;20211;-59
2023/10/09 02:15:53;;;;;;;5.53;2.90;;;;;;;5.30;58.52;101024.16;5010979;28;20203;-59
2023/10/09 02:18:39;;;;;;;5.00;2.93;;;;;;;5.28;58.53;101015.59;5010271;28;20645;-58
2023/10/09 02:21:15;;;;;;;4.43;2.80;;;;;;;5.26;58.70;101015.53;5012999;28;20231;-60
2023/10/09 02:23:49;;;;;;;4.27;2.47;;;;;;;5.26;58.77;101023.22;5009051;28;20210;-58
2023/10/09 02:26:25;;;;;;;4.07;2.60;;;;;;;5.24;58.56;101019.78;5016314;28;20203;-58
2023/10/09 02:28:59;;;;;;;4.90;2.40;;;;;;;5.23;58.63;101007.84;4999175;28;20674;-59
2023/10/09 02:31:35;;;;;;;4.10;2.83;;;;;;;5.23;58.76;101009.53;5010008;28;20209;-58
2023/10/09 02:34:06;;;;;;;5.87;2.87;;;;;;;5.22;58.84;101005.22;5012264;28;20202;-58
2023/10/09 02:36:38;;;;;;;4.53;2.60;;;;;;;5.16;58.57;101005.94;5013200;28;20655;-59
2023/10/09 02:39:07;;;;;;;6.27;3.10;;;;;;;5.10;59.44;101013.44;5012418;28;20204;-60
2023/10/09 02:41:49;;;;;;;5.23;2.90;;;;;;;5.03;59.37;101011.53;5006871;28;20207;-58
2023/10/09 02:44:24;;;;;;;3.40;2.40;;;;;;;4.98;59.61;101013.97;5016120;28;20211;-59
2023/10/09 02:46:57;;;;;;;4.83;2.60;;;;;;;4.96;59.84;101017.31;5012246;28;20206;-59
2023/10/09 02:49:26;;;;;;;7.30;3.40;;;;;;;4.94;60.16;101003.66;5011753;28;20222;-59
2023/10/09 02:51:54;;;;;;;4.47;2.67;;;;;;;4.94;60.24;101001.97;5012609;28;20235;-61
2023/10/09 02:54:35;;;;;;;5.07;2.90;;;;;;;4.94;60.02;101003.66;5011658;28;20674;-59
2023/10/09 02:57:07;;;;;;;5.03;2.90;;;;;;;4.94;60.00;101003.66;5006513;28;20211;-60
2023/10/09 02:59:38;;;;;;;4.07;2.57;;;;;;;4.96;60.43;100996.88;5007162;28;20294;-59
2023/10/09 03:02:07;;;;;;;5.33;3.00;;;;;;;4.98;60.27;100992.69;5011958;28;20207;-60
2023/10/09 03:04:35;;;;;;;8.57;2.70;;;;;;;5.01;60.48;100996.19;5012027;28;20254;-58
2023/10/09 03:07:04;;;;;;;6.60;3.17;;;;;;;5.03;60.38;100998.78;5010830;28;20253;-58
2023/10/09 03:09:32;;;;;;;4.20;2.53;;;;;;;4.99;60.76;101002.06;5003325;28;20697;-58
2023/10/09 03:12:03;;;;;;;4.67;2.67;;;;;;;5.03;60.32;100997.06;5010357;28;20218;-59
2023/10/09 03:14:35;;;;;;;4.80;2.67;;;;;;;5.01;60.38;100992.78;5009813;28;20203;-58
2023/10/09 03:17:03;;;;;;;3.97;2.67;;;;;;;4.99;60.78;100995.28;5008749;28;20203;-60
2023/10/09 03:19:37;;;;;;;4.27;2.63;;;;;;;5.01;60.55;100996.19;5009608;28;20289;-58
2023/10/09 03:22:09;;;;;;;4.90;2.70;;;;;;;4.97;60.67;100989.28;5009747;28;20207;-58
2023/10/09 03:24:43;;;;;;;9.17;2.73;;;;;;;4.97;60.79;100993.50;5006393;28;20708;-59
2023/10/09 03:27:15;;;;;;;5.33;3.00;;;;;;;4.96;60.43;100984.09;5008463;28;20580;-59
2023/10/09 03:29:49;;;;;;;4.17;2.80;;;;;;;4.96;60.33;100991.78;5010240;28;20675;-56
2023/10/09 03:32:19;;;;;;;6.67;3.27;;;;;;;4.97;60.39;100994.38;5009769;28;20293;-59
2023/10/09 03:34:49;;;;;;;4.83;2.97;;;;;;;4.98;60.77;100996.09;5012968;28;20669;-59
2023/10/09 03:37:22;;;;;;;4.47;2.80;;;;;;;4.93;61.17;100991.69;5012460;28;20650;-56
2023/10/09 03:39:54;;;;;;;6.50;3.40;;;;;;;4.95;60.66;100984.94;5011216;28;20218;-57
2023/10/09 03:42:24;;;;;;;4.87;2.87;;;;;;;4.97;60.74;100988.38;5008832;28;20344;-60
2023/10/09 03:44:57;;;;;;;8.70;3.10;;;;;;;5.02;60.88;100981.72;5007072;28;20678;-59
2023/10/09 03:47:27;;;;;;;5.80;3.00;;;;;;;5.06;60.56;100978.44;5013652;28;20203;-58
2023/10/09 03:49:57;;;;;;;5.80;2.90;;;;;;;5.09;60.41;100986.16;5014447;28;20308;-60
2023/10/09 03:52:27;;;;;;;4.83;3.10;;;;;;;5.07;60.36;100983.56;5013246;28;20705;-60
2023/10/09 03:54:55;;;;;;;5.27;2.83;;;;;;;5.11;60.57;100981.09;5012092;28;20215;-59
2023/10/09 03:57:24;;;;;;;4.77;3.00;;;;;;;5.19;60.63;100977.03;5011694;28;20203;-58
2023/10/09 03:59:55;;;;;;;6.37;3.03;;;;;;;5.25;60.38;100967.84;5007934;28;20258;-60
2023/10/09 04:02:24;;;;;;;6.77;2.90;;;;;;;5.29;60.19;100974.75;5011061;28;20207;-56
2023/10/09 04:04:52;;;;;;;5.37;3.10;;;;;;;5.33;59.95;100968.88;5013044;28;20215;-58
2023/10/09 04:07:21;;;;;;;5.33;2.90;;;;;;;5.37;59.75;100979.19;5011960;28;20215;-55
2023/10/09 04:09:58;;;;;;;5.03;2.40;;;;;;;5.42;59.74;100980.19;5015276;28;20204;-57
2023/10/09 04:12:30;;;;;;;7.03;3.10;;;;;;;5.41;59.92;100984.41;5007706;28;20333;-60
2023/10/09 04:15:03;;;;;;;4.63;2.90;;;;;;;5.36;59.87;100982.56;5013105;28;20207;-56
2023/10/09 04:17:34;;;;;;;4.73;2.77;;;;;;;5.30;59.65;100975.59;5010168;28;20654;-57
2023/10/09 04:22:59;;;;;;;5.03;3.27;;;;;;;5.17;60.28;100979.56;5009399;28;20672;-57
2023/10/09 04:25:29;;;;;;;8.93;2.93;;;;;;;5.14;60.39;100978.63;5012595;28;20626;-57
2023/10/09 04:28:09;;;;;;;6.57;2.83;;;;;;;5.11;60.41;100961.50;5012810;28;20257;-63
2023/10/09 04:30:42;;;;;;;5.97;3.17;;;;;;;5.08;60.49;100959.75;5000307;28;20211;-59
2023/10/09 04:33:28;;;;;;;5.47;3.07;;;;;;;5.06;60.66;100956.28;5012008;28;20214;-59
2023/10/09 04:38:55;;;;;;;4.20;2.83;;;;;;;5.02;61.16;100941.72;5007462;28;20257;-59
2023/10/09 04:41:51;;;;;;;5.27;2.97;;;;;;;5.00;61.07;100932.28;5005528;28;20207;-57
2023/10/09 04:44:18;;;;;;;5.00;2.40;;;;;;;5.05;60.73;100938.38;5015735;28;20655;-58
2023/10/09 04:49:49;;;;;;;5.30;3.00;;;;;;;5.00;60.90;100932.28;5007476;28;20204;-58
2023/10/09 04:52:51;;;;;;;7.07;3.30;;;;;;;5.02;60.84;100926.41;5002322;28;20305;-60
2023/10/09 04:55:18;;;;;;;5.10;2.90;;;;;;;5.05;60.83;100925.63;5014674;28;20269;-59
2023/10/09 04:58:00;;;;;;;5.93;2.97;;;;;;;5.07;60.89;100916.28;5005610;28;20658;-60
2023/10/09 05:01:01;;;;;;;5.50;2.90;;;;;;;5.15;60.76;100907.13;5007789;28;20204;-57
2023/10/09 05:03:44;;;;;;;6.43;2.90;;;;;;;5.22;60.51;100908.13;5011944;28;20204;-58
2023/10/09 05:06:42;;;;;;;7.20;2.93;;;;;;;5.29;60.46;100900.66;5012027;28;20230;-58
2023/10/09 05:09:14;;;;;;;6.60;3.07;;;;;;;5.37;60.34;100889.75;5011604;28;20212;-56
2023/10/09 05:11:54;;;;;;;7.37;3.00;;;;;;;5.44;60.04;100881.38;5011953;28;20579;-56
2023/10/09 05:14:37;;;;;;;6.90;2.93;;;;;;;5.45;59.51;100880.56;5017498;28;20203;-57
2023/10/09 05:17:15;;;;;;;6.67;2.67;;;;;;;5.48;59.36;100883.19;5010132;28;20249;-58
2023/10/09 05:20:55;;;;;;;6.07;2.53;;;;;;;5.49;59.12;100870.47;5012798;28;20207;-56
2023/10/09 05:22:56;;;;;;;7.67;3.10;;;;;;;5.52;59.02;100851.75;5009431;28;20237;-60
2023/10/09 05:25:53;;;;;;;7.57;3.33;;;;;;;5.52;59.31;100851.75;5023519;28;20676;-57
2023/10/09 05:28:31;;;;;;;6.03;2.97;;;;;;;5.59;59.34;100861.28;5014477;28;20211;-59
2023/10/09 05:31:08;;;;;;;6.97;2.80;;;;;;;5.62;58.93;100865.59;5010413;28;20769;-56
2023/10/09 05:33:38;;;;;;;5.83;3.00;;;;;;;5.67;59.14;100872.56;5006982;28;20203;-58
2023/10/09 05:36:31;;;;;;;7.80;2.67;;;;;;;5.70;59.18;100875.16;5011001;28;20253;-63
2023/10/09 05:39:17;;;;;;;10.60;3.77;;;;;;;5.77;59.09;100869.34;5019198;28;20238;-63
2023/10/09 05:41:52;;;;;;;4.97;2.90;;;;;;;5.81;58.40;100866.00;5030925;28;20727;-63
2023/10/09 05:49:54;;;;;;;7.90;2.87;;;;;;;5.90;57.87;100864.50;5024839;28;20206;-60
2023/10/09 05:52:56;;;;;;;5.73;2.70;;;;;;;5.91;58.43;100867.06;5030631;28;20330;-58
2023/10/09 06:04:04;;;;;;;4.43;2.97;;;;;;;6.10;57.81;100847.88;5019051;28;20732;-56
2023/10/09 06:06:42;;;;;;;8.57;2.90;;;;;;;6.06;57.16;100846.09;5034299;28;20305;-59
2023/10/09 06:14:57;;;;;;;5.63;2.43;;;;;;;6.14;56.63;100841.97;5028960;28;20198;-57
2023/10/09 06:17:43;;;;;;;4.43;2.53;;;;;;;6.21;57.36;100848.09;5029407;28;20213;-59
2023/10/09 06:23:04;;;;;;;5.23;2.67;;;;;;;6.24;57.20;100849.00;5027886;28;20221;-58
2023/10/09 06:25:39;;;;;;;4.03;2.40;;;;;;;6.23;56.93;100849.84;5029412;28;20400;-57
2023/10/09 06:28:07;;;;;;;6.17;2.70;;;;;;;6.22;56.67;100847.25;5031041;28;20202;-57
2023/10/09 06:30:35;;;;;;;5.47;2.53;;;;;;;6.29;57.39;100855.06;5029342;28;20227;-57
2023/10/09 06:33:20;;;;;;;5.33;2.60;;;;;;;6.36;56.85;100850.94;5030715;28;20634;-57
2023/10/09 06:35:53;;;;;;;3.50;2.30;;;;;;;6.44;56.65;100853.63;5031073;28;20216;-61
2023/10/09 06:38:33;;;;;;;4.67;2.63;;;;;;;6.49;56.24;100850.31;5024421;28;20564;-56
2023/10/09 06:43:47;;;;;;;6.80;2.70;;;;;;;6.57;56.37;100858.13;5028337;28;20205;-58
2023/10/09 06:49:28;;;;;;;4.70;2.30;;;;;;;6.67;55.54;100852.34;5028610;28;20203;-59
2023/10/09 06:51:55;;;;;;;4.50;2.43;;;;;;;6.76;55.87;100849.94;5019026;28;20810;-59
2023/10/09 06:54:25;;;;;;;4.73;2.50;;;;;;;6.81;55.85;100850.00;5024789;28;20199;-59
2023/10/09 07:02:27;;;;;;;6.97;3.17;;;;;;;6.95;55.01;100845.97;5029766;28;20645;-59
2023/10/09 07:05:10;;;;;;;5.10;3.00;;;;;;;6.99;55.17;100841.75;5030355;28;20218;-60
2023/10/09 07:07:50;;;;;;;4.87;2.47;;;;;;;7.12;54.88;100846.25;5029801;28;20725;-59
2023/10/09 07:10:32;;;;;;;5.73;2.47;;;;;;;7.23;54.18;100854.97;5035133;28;20792;-60
2023/10/09 07:13:02;;;;;;;7.00;2.10;;;;;;;7.39;53.72;100856.03;5023809;28;20221;-59
2023/10/09 07:18:23;;;;;;;3.67;2.60;;;;;;;7.84;54.27;100854.06;5027047;28;20241;-59
2023/10/09 07:21:01;;;;;;;5.00;2.13;;;;;;;8.14;52.66;100857.03;5023254;28;20575;-59
2023/10/09 07:23:32;;;;;;;5.73;2.47;;;;;;;8.56;51.98;100866.03;5031830;28;20203;-58
2023/10/09 07:26:23;;;;;;;4.17;2.17;;;;;;;8.93;51.02;100864.66;5033667;28;20210;-57
2023/10/09 07:29:08;;;;;;;3.67;2.43;;;;;;;9.78;49.59;100847.22;5027851;28;20643;-60
2023/10/09 07:31:45;;;;;;;6.27;2.63;;;;;;;10.53;48.96;100847.47;5030925;28;20213;-60
2023/10/09 07:36:56;;;;;;;4.13;2.50;;;;;;;12.15;41.63;100841.16;5028002;28;20240;-58
2023/10/09 07:39:34;;;;;;;5.37;2.47;;;;;;;11.86;40.49;100834.44;5030454;28;20202;-60
2023/10/09 07:42:26;;;;;;;3.87;2.47;;;;;;;11.56;41.58;100838.81;5034465;28;20213;-60
2023/10/09 07:45:11;;;;;;;6.57;2.50;;;;;;;11.23;42.03;100833.69;5029738;28;20221;-60
2023/10/09 07:48:00;;;;;;;6.73;2.50;;;;;;;11.03;42.33;100847.50;5034914;28;20293;-58
2023/10/09 07:50:38;;;;;;;6.90;2.97;;;;;;;10.95;42.94;100844.06;5031125;28;20512;-59
2023/10/09 07:53:25;;;;;;;3.10;1.90;;;;;;;11.10;42.25;100848.34;5037201;28;20683;-59
2023/10/09 07:55:58;;;;;;;7.37;2.43;;;;;;;11.02;42.62;100855.25;5030143;28;20237;-55
2023/10/09 07:58:26;;;;;;;5.47;2.70;;;;;;;11.01;42.75;100849.22;5032604;28;20202;-59
2023/10/09 08:01:15;;;;;;;4.07;2.23;;;;;;;11.07;42.75;100838.03;5033743;28;20199;-57
2023/10/09 08:03:46;;;;;;;4.77;1.83;;;;;;;11.31;42.59;100832.00;5031672;28;20211;-59
2023/10/09 08:09:28;;;;;;;9.10;2.63;;;;;;;11.42;41.40;100824.22;5031311;28;20642;-57
2023/10/09 08:12:13;;;;;;;4.67;2.10;;;;;;;11.32;41.53;100818.22;5034866;28;20231;-56
2023/10/09 08:14:45;;;;;;;9.47;2.50;;;;;;;11.01;41.64;100810.53;5031784;28;20197;-57
2023/10/09 08:17:15;;;;;;;4.67;2.00;;;;;;;10.81;42.68;100812.25;5034016;28;20213;-57
2023/10/09 08:19:58;;;;;;;6.17;2.20;;;;;;;10.76;42.93;100812.28;5018273;28;20736;-58
2023/10/09 08:22:42;;;;;;;3.30;2.20;;;;;;;10.60;43.34;100807.94;5028807;28;20207;-55
2023/10/09 08:25:27;;;;;;;4.57;2.20;;;;;;;10.49;43.47;100813.09;5021213;28;20332;-55
2023/10/09 08:27:58;;;;;;;4.17;1.70;;;;;;;10.44;43.80;100819.97;5024867;28;20203;-56
2023/10/09 08:30:29;;;;;;;4.83;2.50;;;;;;;10.44;43.70;100822.53;5026066;28;20289;-57
2023/10/09 08:33:05;;;;;;;7.60;2.60;;;;;;;10.47;44.10;100819.97;5028640;28;20273;-56
2023/10/09 08:35:47;;;;;;;6.23;2.27;;;;;;;10.58;43.95;100818.28;5032877;28;20236;-56
2023/10/09 08:38:23;;;;;;;4.90;2.13;;;;;;;10.62;43.89;100817.41;5033003;28;20197;-56
2023/10/09 08:40:58;;;;;;;6.03;2.23;;;;;;;10.75;43.72;100809.69;5024906;28;20206;-59
2023/10/09 08:43:30;;;;;;;4.23;1.87;;;;;;;10.91;43.59;100810.56;5028158;28;20233;-56
2023/10/09 08:46:01;;;;;;;4.07;2.30;;;;;;;11.01;43.03;100804.50;5025742;28;20214;-57
2023/10/09 08:48:31;;;;;;;3.20;2.03;;;;;;;10.96;43.00;100807.09;5032279;28;20569;-56
2023/10/09 08:51:04;;;;;;;6.97;2.30;;;;;;;10.88;43.14;100796.78;5026957;28;20276;-56
2023/10/09 08:53:34;;;;;;;5.83;2.43;;;;;;;10.83;43.43;100798.53;5030350;28;20606;-56
2023/10/09 08:56:04;;;;;;;4.03;2.43;;;;;;;10.90;44.00;100804.53;5030716;28;20654;-58
2023/10/09 08:58:36;;;;;;;4.30;2.80;;;;;;;10.95;43.87;100801.94;5029131;28;20289;-56
2023/10/09 09:01:05;;;;;;;5.43;3.10;;;;;;;11.00;43.99;100801.06;5029415;28;20256;-66
2023/10/09 09:03:43;;;;;;;3.83;2.70;;;;;;;11.01;44.14;100792.50;5032061;28;20199;-57
2023/10/09 09:06:14;;;;;;;9.53;2.60;;;;;;;11.03;43.67;100792.47;5027472;28;20206;-60
2023/10/09 09:08:44;;;;;;;3.50;1.90;;;;;;;11.05;43.45;100783.88;5029166;28;20653;-58
2023/10/09 09:11:16;;;;;;;6.07;2.70;;;;;;;11.12;42.88;100780.44;5028520;28;20203;-58
2023/10/09 09:13:49;;;;;;;6.67;2.50;;;;;;;11.26;42.87;100772.66;5029596;28;20210;-61
2023/10/09 09:16:18;;;;;;;3.83;1.83;;;;;;;11.44;42.74;100765.72;5027418;28;20207;-60
2023/10/09 09:19:00;;;;;;;4.37;1.90;;;;;;;11.60;42.04;100757.94;5031304;28;20202;-58
2023/10/09 09:21:28;;;;;;;4.27;2.33;;;;;;;11.70;41.89;100755.28;5020969;28;20289;-59
2023/10/09 09:24:00;;;;;;;14.63;2.10;;;;;;;11.66;41.29;100757.03;5030298;28;20645;-58
2023/10/09 09:26:38;;;;;;;6.70;1.97;;;;;;;11.60;41.47;100752.75;5029104;28;20202;-60
2023/10/09 09:29:08;;;;;;;3.60;2.03;;;;;;;11.57;41.29;100750.19;5028465;28;20202;-59
2023/10/09 09:31:38;;;;;;;1.73;1.50;;;;;;;11.57;40.85;100757.06;5026074;28;20199;-59
2023/10/09 09:34:14;;;;;;;3.70;1.57;;;;;;;11.59;40.70;100756.19;5030512;28;20221;-60
2023/10/09 09:36:54;;;;;;;7.13;1.80;;;;;;;11.49;40.04;100759.69;5031757;28;20569;-59
2023/10/09 09:39:27;;;;;;;5.47;2.03;;;;;;;11.43;40.10;100754.53;5021486;28;20234;-59
2023/10/09 09:42:13;;;;;;;1.63;1.43;;;;;;;11.33;40.22;100737.38;5031899;28;20201;-60
2023/10/09 09:44:45;;;;;;;4.30;1.57;;;;;;;11.18;40.16;100737.44;5023239;28;20222;-59
2023/10/09 09:47:23;;;;;;;2.20;1.67;;;;;;;11.11;40.40;100734.84;5029546;28;20241;-59
2023/10/09 09:49:59;;;;;;;2.27;1.47;;;;;;;11.19;40.55;100726.25;5030477;28;20290;-60
2023/10/09 09:52:37;;;;;;;2.60;1.33;;;;;;;11.38;40.60;100722.75;5029247;28;20328;-60
2023/10/09 09:55:16;;;;;;;5.93;2.07;;;;;;;11.60;40.46;100724.38;5032021;28;20603;-60
2023/10/09 09:57:45;;;;;;;2.83;1.53;;;;;;;11.79;39.95;100716.53;5029934;28;20210;-60
2023/10/09 10:00:28;;;;;;;1.90;1.17;;;;;;;11.90;39.72;100714.78;5031287;28;20253;-60
2023/10/09 10:03:00;;;;;;;8.00;1.70;;;;;;;11.96;38.85;100708.69;5038877;28;20277;-60
2023/10/09 10:05:31;;;;;;;2.90;1.70;;;;;;;12.05;38.93;100713.81;5030711;28;20226;-60
2023/10/09 10:08:00;;;;;;;5.33;1.33;;;;;;;12.01;38.26;100712.97;5015545;28;20203;-59
2023/10/09 10:10:37;;;;;;;3.70;1.40;;;;;;;11.96;38.31;100704.38;5031202;28;20205;-60
2023/10/09 10:13:05;;;;;;;3.27;1.70;;;;;;;11.84;38.51;100704.47;5018036;28;20245;-59
2023/10/09 10:16:00;;;;;;;2.97;1.37;;;;;;;11.81;38.96;100694.97;5030467;28;20260;-60
2023/10/09 10:18:35;;;;;;;3.87;1.27;;;;;;;11.77;38.29;100697.59;5028259;28;20573;-58
2023/10/09 10:21:17;;;;;;;3.93;1.50;;;;;;;11.63;38.02;100689.06;5027476;28;20345;-59
2023/10/09 10:23:48;;;;;;;3.00;1.47;;;;;;;11.49;38.24;100694.31;5026255;28;20871;-63
2023/10/09 10:26:25;;;;;;;3.00;1.60;;;;;;;11.38;38.27;100684.03;5023704;28;20440;-59
2023/10/09 10:29:23;;;;;;;3.30;1.70;;;;;;;11.31;38.79;100682.34;5014525;28;20207;-59
2023/10/09 10:32:00;;;;;;;2.27;1.37;;;;;;;11.24;38.96;100670.34;5028855;28;20199;-59
2023/10/09 10:34:55;;;;;;;2.00;1.37;;;;;;;11.19;38.73;100666.91;5031232;28;20677;-60
2023/10/09 10:37:38;;;;;;;4.40;1.33;;;;;;;11.07;38.70;100673.84;5030003;28;20229;-58
2023/10/09 10:40:13;;;;;;;2.23;1.37;;;;;;;10.89;39.01;100668.72;5031174;28;20210;-59
2023/10/09 10:42:57;;;;;;;1.63;1.20;;;;;;;10.73;39.90;100667.94;5030516;28;20302;-58
2023/10/09 10:45:35;;;;;;;4.00;1.60;;;;;;;10.62;40.13;100667.09;5028575;28;20212;-60
2023/10/09 10:48:22;;;;;;;2.23;1.40;;;;;;;10.55;40.61;100668.81;5019000;28;20253;-64
2023/10/09 10:50:58;;;;;;;2.63;1.50;;;;;;;10.57;40.33;100664.53;5030155;28;20209;-59
2023/10/09 10:53:34;;;;;;;2.97;1.20;;;;;;;10.56;40.75;100664.50;5028666;28;20242;-57
2023/10/09 10:56:17;;;;;;;7.10;1.70;;;;;;;10.59;40.94;100662.78;5027177;28;20568;-58
2023/10/09 10:59:11;;;;;;;2.43;1.63;;;;;;;10.56;40.83;100656.78;5028066;28;20210;-57
2023/10/09 11:04:38;;;;;;;2.07;1.50;;;;;;;10.44;41.58;100649.94;5020283;28;20213;-59
2023/10/09 11:07:12;;;;;;;3.17;1.40;;;;;;;10.43;41.63;100648.22;5029582;28;20199;-57
2023/10/09 11:10:07;;;;;;;4.77;1.60;;;;;;;10.42;42.24;100654.25;5023545;28;20293;-58
2023/10/09 11:13:25;;;;;;;2.23;1.13;;;;;;;10.45;42.32;100654.22;5025090;28;20293;-58
2023/10/09 11:15:44;;;;;;;4.07;1.57;;;;;;;10.42;42.16;100637.91;5029750;28;20211;-59
2023/10/09 11:18:20;;;;;;;3.20;1.77;;;;;;;10.45;42.21;100636.19;5029665;28;20195;-58
2023/10/09 11:23:53;;;;;;;2.10;1.20;;;;;;;10.43;41.62;100632.78;5025075;28;20207;-58
2023/10/09 11:26:25;;;;;;;4.93;1.40;;;;;;;10.43;41.09;100639.66;5028621;28;20206;-58
2023/10/09 11:29:16;;;;;;;1.97;1.40;;;;;;;10.33;41.76;100629.34;5029217;28;20213;-64
2023/10/09 11:31:59;;;;;;;3.87;1.60;;;;;;;10.31;42.25;100630.19;5029435;28;20285;-61
2023/10/09 11:34:31;;;;;;;2.17;1.37;;;;;;;10.30;42.92;100637.06;5022053;28;20618;-63
2023/10/09 11:37:00;;;;;;;2.73;1.40;;;;;;;10.31;43.46;100632.75;5029963;28;20208;-64
2023/10/09 11:39:36;;;;;;;2.00;1.30;;;;;;;10.32;44.50;100626.78;5029675;28;20211;-64
2023/10/09 11:42:06;;;;;;;2.47;1.40;;;;;;;10.33;45.07;100615.59;5030100;28;20203;-64
2023/10/09 11:44:40;;;;;;;2.10;1.40;;;;;;;10.40;44.85;100613.00;5027991;28;20198;-63
2023/10/09 11:50:10;;;;;;;3.33;1.70;;;;;;;10.45;46.57;100613.00;5022260;28;20292;-64
2023/10/09 11:53:08;;;;;;;4.57;1.63;;;;;;;10.53;46.54;100612.97;5029758;28;20235;-64
2023/10/09 11:55:37;;;;;;;3.50;1.93;;;;;;;10.63;47.14;100612.97;5029144;28;20330;-63
2023/10/09 11:58:07;;;;;;;3.40;2.13;;;;;;;10.74;46.82;100606.91;5033463;28;20202;-61
2023/10/09 12:00:45;;;;;;;4.10;2.13;;;;;;;10.74;47.52;100612.06;5032690;28;20206;-64
2023/10/09 12:03:14;;;;;;;2.83;1.70;;;;;;;10.67;48.07;100605.22;5033683;28;20206;-64
2023/10/09 12:05:46;;;;;;;2.87;1.90;;;;;;;10.59;49.05;100600.09;5037557;28;20213;-64
2023/10/09 12:08:15;;;;;;;2.70;1.77;;;;;;;10.45;49.84;100600.13;5022649;28;20211;-64
2023/10/09 12:10:44;;;;;;;3.47;1.90;;;;;;;10.35;50.70;100596.72;5035078;28;20685;-63
2023/10/09 12:13:15;;;;;;;3.97;2.33;;;;;;;10.37;51.44;100599.28;5032726;28;20285;-59
2023/10/09 12:15:46;;;;;;;3.57;2.43;;;;;;;10.45;51.42;100600.13;5031474;28;20215;-59
2023/10/09 12:18:15;;;;;;;3.53;2.60;;;;;;;10.50;51.92;100611.28;5033934;28;20202;-57
2023/10/09 12:20:50;;;;;;;4.53;2.50;;;;;;;10.54;51.71;100600.09;5028870;28;20673;-59
2023/10/09 12:23:19;;;;;;;4.97;2.40;;;;;;;10.57;52.15;100588.94;5033447;28;20658;-60
2023/10/09 12:25:50;;;;;;;4.77;2.57;;;;;;;10.60;51.86;100579.50;5032375;28;20241;-58
2023/10/09 12:28:21;;;;;;;3.43;2.73;;;;;;;10.58;52.58;100586.34;5027583;28;20209;-60
2023/10/09 12:30:51;;;;;;;4.83;3.07;;;;;;;10.59;53.07;100582.06;5033068;28;20198;-58
2023/10/09 12:33:27;;;;;;;4.47;2.83;;;;;;;10.53;53.01;100589.78;5032085;28;20225;-60
2023/10/09 12:35:59;;;;;;;3.80;2.87;;;;;;;10.47;53.45;100598.41;5041615;28;20704;-60
2023/10/09 12:38:32;;;;;;;6.20;2.87;;;;;;;10.48;53.92;100594.09;5032462;28;20213;-58
2023/10/09 12:41:19;;;;;;;4.30;2.80;;;;;;;10.49;53.76;100598.38;5031467;28;20242;-57
2023/10/09 12:43:48;;;;;;;5.83;2.60;;;;;;;10.52;53.94;100596.66;5030120;28;20613;-58
2023/10/09 12:46:16;;;;;;;5.60;3.03;;;;;;;10.58;54.22;100596.66;5033014;28;20252;-59
2023/10/09 12:48:46;;;;;;;4.87;3.23;;;;;;;10.71;53.88;100591.47;5032850;28;20642;-58
2023/10/09 12:51:16;;;;;;;5.80;2.83;;;;;;;10.80;53.14;100591.44;5031703;28;20241;-58
2023/10/09 12:53:45;;;;;;;4.13;2.90;;;;;;;10.66;53.80;100585.47;5032984;28;20757;-56
2023/10/09 12:56:13;;;;;;;4.23;3.23;;;;;;;10.56;53.48;100593.22;5035474;28;20727;-58
2023/10/09 12:58:52;;;;;;;4.97;3.00;;;;;;;10.48;54.34;100600.13;5033005;28;20256;-59
2023/10/09 13:01:22;;;;;;;5.23;2.80;;;;;;;10.47;54.24;100595.84;5031369;28;20202;-59
2023/10/09 13:03:50;;;;;;;6.17;3.00;;;;;;;10.36;54.32;100580.41;5032671;28;20685;-58
2023/10/09 13:06:23;;;;;;;7.33;3.40;;;;;;;10.27;54.95;100589.84;5032645;28;20654;-60